Time;durP1;ratioP1;P1;durP2;ratioP2;P2;SDS_P1;SDS_P2;PMS_P1;PMS_P2;Temp;Humidity;BMP_temperature;BMP_pressure;BME280_temperature;BME280_humidity;BME280_pressure;Samples;Min_cycle;Max_cycle;Signal;HPM_P1;HPM_P2
2021/06/27 00:01:59;;;;;;;18.90;16.95;;;19.30;73.30;;;;;;4944688;28;20038;-84
2021/06/27 00:04:25;;;;;;;19.15;17.25;;;19.30;73.50;;;;;;4944532;28;20088;-81
2021/06/27 00:06:50;;;;;;;19.80;17.85;;;19.40;73.60;;;;;;4960275;28;20031;-81
2021/06/27 00:09:16;;;;;;;20.13;18.10;;;19.30;73.60;;;;;;4944663;28;20194;-80
2021/06/27 00:11:42;;;;;;;19.95;17.88;;;19.30;73.80;;;;;;4961139;28;20031;-80
2021/06/27 00:14:08;;;;;;;19.90;17.90;;;19.30;73.90;;;;;;4960454;28;20035;-81
2021/06/27 00:16:34;;;;;;;20.77;18.25;;;19.30;74.00;;;;;;4960318;28;20486;-87
2021/06/27 00:19:02;;;;;;;21.35;17.73;;;19.20;74.10;;;;;;4960354;28;20031;-80
2021/06/27 00:21:28;;;;;;;21.23;18.98;;;19.20;74.10;;;;;;4960600;28;20030;-80
2021/06/27 00:23:54;;;;;;;22.17;19.10;;;19.20;74.20;;;;;;4944751;28;20125;-80
2021/06/27 00:26:22;;;;;;;20.83;18.52;;;19.20;74.30;;;;;;4960331;28;20522;-81
2021/06/27 00:28:51;;;;;;;22.33;18.67;;;19.20;74.70;;;;;;4960483;28;20117;-80
2021/06/27 00:31:17;;;;;;;21.90;19.70;;;19.00;75.00;;;;;;4959118;28;20039;-80
2021/06/27 00:33:43;;;;;;;22.23;19.92;;;19.00;75.30;;;;;;4959992;28;20019;-80
2021/06/27 00:36:09;;;;;;;20.55;18.48;;;18.90;75.60;;;;;;4959802;28;20050;-80
2021/06/27 00:38:36;;;;;;;22.10;19.75;;;18.90;75.80;;;;;;4960058;28;20549;-83
2021/06/27 00:41:03;;;;;;;21.98;19.58;;;18.90;76.00;;;;;;4943933;28;20125;-80
2021/06/27 00:43:29;;;;;;;23.52;21.08;;;18.80;76.20;;;;;;4959913;28;20035;-80
2021/06/27 00:45:57;;;;;;;23.02;20.60;;;18.70;76.40;;;;;;4943853;28;20117;-80
2021/06/27 00:48:23;;;;;;;23.38;20.98;;;18.70;76.60;;;;;;4944643;28;20045;-81
2021/06/27 00:50:54;;;;;;;23.40;20.90;;;18.60;77.30;;;;;;4959742;28;20053;-80
2021/06/27 00:53:20;;;;;;;23.00;20.75;;;18.60;77.20;;;;;;4960493;28;20348;-81
2021/06/27 00:55:54;;;;;;;22.15;19.85;;;18.60;77.30;;;;;;4943840;28;20038;-82
2021/06/27 00:58:27;;;;;;;22.75;20.35;;;18.50;77.30;;;;;;4959861;28;20045;-83
2021/06/27 01:00:53;;;;;;;;;;;18.50;77.50;;;;;;4960692;28;20120;-81
2021/06/27 01:03:19;;;;;;;23.13;20.10;;;18.50;77.60;;;;;;4959596;28;20347;-81
2021/06/27 01:05:44;;;;;;;23.45;20.10;;;18.50;77.60;;;;;;4943541;28;20479;-80
2021/06/27 01:08:10;;;;;;;22.13;19.80;;;18.50;77.60;;;;;;4976876;28;20039;-80
2021/06/27 01:10:37;;;;;;;23.45;20.95;;;18.40;77.80;;;;;;4946077;28;20034;-82
2021/06/27 01:13:04;;;;;;;23.70;20.70;;;18.40;77.90;;;;;;4966925;28;20037;-81
2021/06/27 01:15:30;;;;;;;24.13;21.08;;;18.40;78.00;;;;;;4968294;28;20102;-81
2021/06/27 01:17:57;;;;;;;21.73;19.42;;;18.40;78.00;;;;;;4945856;28;20069;-80
2021/06/27 01:20:31;;;;;;;24.38;20.40;;;18.40;78.20;;;;;;4959153;28;20127;-81
2021/06/27 01:22:59;;;;;;;24.13;20.35;;;18.30;78.30;;;;;;4976326;28;20495;-81
2021/06/27 01:25:27;;;;;;;27.65;21.85;;;18.30;78.50;;;;;;4959489;28;20027;-81
2021/06/27 01:27:54;;;;;;;21.52;19.27;;;18.30;78.90;;;;;;4959264;28;20046;-81
2021/06/27 01:30:21;;;;;;;24.52;22.00;;;18.20;79.00;;;;;;4943792;28;20090;-81
2021/06/27 01:32:50;;;;;;;23.45;21.23;;;18.10;79.20;;;;;;4943772;28;20058;-81
2021/06/27 01:35:17;;;;;;;23.75;21.23;;;18.10;79.50;;;;;;4959208;28;20386;-81
2021/06/27 01:37:44;;;;;;;24.98;22.23;;;18.00;79.50;;;;;;4958742;28;20034;-84
2021/06/27 01:40:13;;;;;;;23.90;21.33;;;18.00;79.60;;;;;;4943547;28;20076;-81
2021/06/27 01:42:39;;;;;;;24.13;21.50;;;18.00;79.60;;;;;;4943154;28;20031;-82
2021/06/27 01:45:16;;;;;;;24.60;21.60;;;18.00;79.60;;;;;;4958567;28;20038;-81
2021/06/27 01:47:42;;;;;;;23.80;21.33;;;18.00;79.80;;;;;;4976159;28;20153;-81
2021/06/27 01:50:09;;;;;;;24.65;22.15;;;17.90;80.00;;;;;;4976363;28;20034;-82
2021/06/27 01:52:36;;;;;;;23.98;21.08;;;17.80;80.30;;;;;;4958886;28;20027;-82
2021/06/27 01:55:04;;;;;;;24.42;21.75;;;17.80;80.50;;;;;;4958809;28;20030;-81
2021/06/27 01:57:29;;;;;;;23.77;21.38;;;17.80;80.50;;;;;;4976323;28;20038;-81
2021/06/27 01:59:55;;;;;;;24.17;21.75;;;17.70;80.60;;;;;;4942468;28;20493;-81
2021/06/27 02:02:21;;;;;;;24.90;22.30;;;17.70;80.80;;;;;;4942493;28;20034;-81
2021/06/27 02:04:47;;;;;;;25.60;21.73;;;17.70;81.00;;;;;;4958406;28;20033;-84
2021/06/27 02:07:13;;;;;;;24.75;22.25;;;17.70;81.20;;;;;;4958624;28;20042;-82
2021/06/27 02:09:44;;;;;;;24.98;22.00;;;17.60;81.20;;;;;;4942429;28;20023;-81
2021/06/27 02:12:10;;;;;;;25.60;21.73;;;17.60;81.20;;;;;;4958100;28;20023;-82
2021/06/27 02:14:40;;;;;;;24.23;21.63;;;17.60;81.10;;;;;;4957960;28;20463;-81
2021/06/27 02:17:08;;;;;;;25.02;22.35;;;17.70;81.00;;;;;;4958052;28;20023;-81
2021/06/27 02:19:34;;;;;;;25.60;21.20;;;17.80;80.90;;;;;;4958250;28;20081;-81
2021/06/27 02:22:00;;;;;;;24.83;22.02;;;17.80;80.80;;;;;;4941995;28;20026;-82
2021/06/27 02:24:25;;;;;;;25.42;21.20;;;17.90;80.80;;;;;;4957933;28;20037;-81
2021/06/27 02:26:51;;;;;;;24.75;22.05;;;17.90;80.70;;;;;;4941957;28;20360;-83
2021/06/27 02:29:17;;;;;;;26.02;21.45;;;17.80;80.70;;;;;;4942712;28;20031;-81
2021/06/27 02:31:49;;;;;;;23.67;21.27;;;17.80;80.90;;;;;;4958858;28;20435;-81
2021/06/27 02:34:15;;;;;;;24.83;22.13;;;17.70;81.00;;;;;;4957946;28;20102;-81
2021/06/27 02:36:41;;;;;;;24.63;22.10;;;17.60;81.20;;;;;;4942260;28;20286;-81
2021/06/27 02:39:06;;;;;;;26.08;22.48;;;17.50;81.60;;;;;;4957630;28;20050;-84
2021/06/27 02:41:34;;;;;;;25.92;23.20;;;17.40;82.00;;;;;;4941877;28;20027;-81
2021/06/27 02:44:00;;;;;;;24.33;21.73;;;17.40;82.40;;;;;;4942542;28;20031;-81
2021/06/27 02:46:25;;;;;;;26.08;22.60;;;17.30;82.60;;;;;;4957372;28;20491;-81
2021/06/27 02:48:51;;;;;;;25.98;23.13;;;17.20;82.90;;;;;;4957783;28;20035;-85
2021/06/27 02:51:19;;;;;;;25.65;22.23;;;17.20;83.00;;;;;;4941689;28;20463;-81
2021/06/27 02:53:44;;;;;;;23.95;21.02;;;17.20;83.10;;;;;;4975578;28;20077;-79
2021/06/27 02:56:10;;;;;;;25.63;22.30;;;17.10;83.10;;;;;;4957667;28;20055;-82
2021/06/27 02:58:41;;;;;;;26.20;22.20;;;17.10;83.30;;;;;;4957626;28;20386;-79
2021/06/27 03:01:08;;;;;;;24.52;21.90;;;17.10;83.40;;;;;;4974764;28;20030;-81
2021/06/27 03:03:34;;;;;;;26.38;23.58;;;17.10;83.40;;;;;;4956885;28;20034;-79
2021/06/27 03:06:00;;;;;;;30.00;22.65;;;17.10;83.50;;;;;;4957182;28;20034;-79
2021/06/27 03:08:26;;;;;;;26.35;23.52;;;17.00;83.60;;;;;;4957181;28;20101;-79
2021/06/27 03:10:51;;;;;;;26.90;23.25;;;17.00;83.80;;;;;;4975010;28;20345;-79
2021/06/27 03:13:17;;;;;;;27.60;22.60;;;17.00;83.90;;;;;;4941344;28;20094;-79
2021/06/27 03:15:43;;;;;;;26.65;23.48;;;17.00;84.10;;;;;;4957338;28;20035;-80
2021/06/27 03:18:09;;;;;;;27.38;24.15;;;16.90;84.30;;;;;;4941738;28;20039;-80
2021/06/27 03:20:34;;;;;;;26.58;23.67;;;16.90;84.60;;;;;;4974449;28;20035;-80
2021/06/27 03:23:00;;;;;;;25.02;21.92;;;16.90;84.60;;;;;;4957269;28;20054;-81
2021/06/27 03:25:28;;;;;;;25.83;22.95;;;16.90;84.70;;;;;;4941552;28;20045;-80
2021/06/27 03:27:54;;;;;;;25.17;22.20;;;16.90;84.70;;;;;;4941593;28;20034;-80
2021/06/27 03:30:20;;;;;;;24.38;21.77;;;16.90;84.60;;;;;;4941155;28;20089;-80
2021/06/27 03:32:47;;;;;;;24.48;21.67;;;17.00;84.50;;;;;;4959714;28;20089;-80
2021/06/27 03:35:13;;;;;;;24.80;22.05;;;17.10;84.30;;;;;;4961350;28;20585;-80
2021/06/27 03:37:48;;;;;;;23.92;21.35;;;17.20;83.90;;;;;;4961031;28;20045;-81
2021/06/27 03:40:15;;;;;;;26.15;23.35;;;17.30;83.50;;;;;;4961492;28;20117;-80
2021/06/27 03:42:40;;;;;;;24.27;21.67;;;17.40;83.50;;;;;;4961049;28;20034;-80
2021/06/27 03:45:07;;;;;;;23.25;20.75;;;17.40;83.50;;;;;;4960421;28;20387;-80
2021/06/27 03:47:32;;;;;;;23.33;20.70;;;17.40;83.30;;;;;;4960688;28;20054;-81
2021/06/27 03:49:58;;;;;;;23.20;20.75;;;17.50;83.20;;;;;;4960952;28;20054;-82
2021/06/27 03:52:24;;;;;;;25.20;21.30;;;17.50;83.00;;;;;;4961010;28;20058;-82
2021/06/27 03:54:49;;;;;;;25.65;22.13;;;17.60;82.90;;;;;;4978207;28;20042;-80
2021/06/27 03:57:15;;;;;;;24.90;22.23;;;17.60;83.30;;;;;;4947450;28;20031;-81
2021/06/27 03:59:41;;;;;;;25.52;22.15;;;17.60;82.80;;;;;;4982358;28;20423;-81
2021/06/27 04:02:07;;;;;;;24.40;20.40;;;17.80;82.50;;;;;;4988556;28;20038;-82
2021/06/27 04:04:33;;;;;;;25.38;20.08;;;17.90;82.10;;;;;;4982105;28;20138;-83
2021/06/27 04:06:58;;;;;;;22.95;20.45;;;18.00;81.70;;;;;;4981868;28;20035;-82
2021/06/27 04:09:24;;;;;;;24.45;20.73;;;18.20;81.40;;;;;;4968246;28;20031;-83
2021/06/27 04:11:49;;;;;;;23.75;19.23;;;18.20;81.20;;;;;;4977333;28;20042;-81
2021/06/27 04:14:15;;;;;;;24.83;20.25;;;18.40;80.80;;;;;;4986943;28;20375;-81
2021/06/27 04:16:41;;;;;;;21.33;18.90;;;18.40;80.50;;;;;;4947060;28;20026;-80
2021/06/27 04:19:06;;;;;;;22.85;20.38;;;18.60;80.30;;;;;;4946755;28;20501;-84
2021/06/27 04:21:32;;;;;;;21.52;19.27;;;18.60;80.10;;;;;;4967455;28;20455;-85
2021/06/27 04:23:57;;;;;;;21.75;19.30;;;18.90;79.60;;;;;;4986024;28;20027;-80
2021/06/27 04:26:23;;;;;;;20.92;18.83;;;19.20;78.70;;;;;;4951373;28;20367;-80
2021/06/27 04:28:49;;;;;;;23.95;19.55;;;19.20;78.50;;;;;;4946557;28;20030;-80
2021/06/27 04:31:15;;;;;;;23.95;19.67;;;18.80;79.10;;;;;;4960898;28;20034;-80
2021/06/27 04:33:40;;;;;;;20.73;18.60;;;18.60;80.00;;;;;;4961334;28;20031;-80
2021/06/27 04:36:06;;;;;;;21.80;19.25;;;18.30;80.80;;;;;;4962733;28;20109;-84
2021/06/27 04:38:32;;;;;;;26.10;18.33;;;18.20;81.30;;;;;;4944770;28;20468;-80
2021/06/27 04:40:58;;;;;;;22.27;19.25;;;18.20;81.60;;;;;;4960971;28;20382;-80
2021/06/27 04:43:23;;;;;;;22.83;19.98;;;18.10;82.00;;;;;;4944289;28;20031;-80
2021/06/27 04:45:49;;;;;;;26.98;20.95;;;18.10;82.10;;;;;;4960345;28;20382;-79
2021/06/27 04:48:15;;;;;;;21.33;18.70;;;18.10;82.00;;;;;;4960972;28;20471;-80
2021/06/27 04:50:41;;;;;;;22.77;19.02;;;18.20;82.10;;;;;;4960370;28;20101;-80
2021/06/27 04:53:11;;;;;;;21.50;18.95;;;18.20;82.10;;;;;;4959636;28;20479;-80
2021/06/27 04:55:37;;;;;;;21.50;19.23;;;18.20;82.20;;;;;;4960104;28;20023;-79
2021/06/27 04:58:03;;;;;;;21.45;18.10;;;18.20;82.20;;;;;;4943818;28;20368;-79
2021/06/27 05:00:29;;;;;;;20.67;18.20;;;18.20;82.20;;;;;;4977125;28;20061;-81
2021/06/27 05:02:55;;;;;;;20.88;18.77;;;18.30;82.00;;;;;;4943878;28;20467;-81
2021/06/27 05:05:21;;;;;;;20.80;18.60;;;18.40;81.90;;;;;;4943264;28;20030;-82
2021/06/27 05:07:46;;;;;;;20.38;18.20;;;18.40;81.80;;;;;;4959936;28;20039;-81
2021/06/27 05:10:12;;;;;;;20.40;18.27;;;18.50;81.60;;;;;;4976789;28;20110;-83
2021/06/27 05:12:38;;;;;;;21.80;18.30;;;18.60;81.10;;;;;;4943335;28;20085;-81
2021/06/27 05:15:04;;;;;;;19.40;17.50;;;18.70;80.90;;;;;;4942948;28;20031;-80
2021/06/27 05:17:30;;;;;;;19.15;16.38;;;18.80;80.60;;;;;;4976448;28;20023;-81
2021/06/27 05:19:55;;;;;;;21.63;17.50;;;18.90;80.20;;;;;;4943429;28;20477;-81
2021/06/27 05:22:21;;;;;;;19.52;17.40;;;19.00;79.80;;;;;;4959191;28;20514;-81
2021/06/27 05:24:46;;;;;;;18.70;16.63;;;19.30;79.30;;;;;;4943158;28;20035;-80
2021/06/27 05:27:12;;;;;;;18.05;16.10;;;19.60;78.60;;;;;;4960060;28;20400;-80
2021/06/27 05:29:38;;;;;;;18.05;16.00;;;20.00;77.70;;;;;;4943066;28;20026;-81
2021/06/27 05:32:04;;;;;;;18.90;16.50;;;20.40;76.40;;;;;;4959671;28;20038;-82
2021/06/27 05:34:30;;;;;;;18.55;15.32;;;20.50;75.30;;;;;;4959004;28;20058;-81
2021/06/27 05:36:59;;;;;;;18.35;15.98;;;20.50;75.40;;;;;;4943403;28;20038;-81
2021/06/27 05:39:26;;;;;;;18.75;15.98;;;20.80;74.90;;;;;;4976307;28;20117;-80
2021/06/27 05:41:52;;;;;;;17.80;14.90;;;21.30;73.40;;;;;;4964954;28;20054;-84
2021/06/27 05:44:19;;;;;;;17.95;14.98;;;21.90;71.80;;;;;;4963470;28;20035;-87
2021/06/27 05:46:45;;;;;;;20.20;14.32;;;22.50;70.20;;;;;;4948927;28;20137;-79
2021/06/27 05:49:11;;;;;;;15.57;13.98;;;23.30;68.60;;;;;;4943056;28;20037;-80
2021/06/27 05:51:37;;;;;;;15.68;14.00;;;23.70;66.40;;;;;;4958775;28;20031;-80
2021/06/27 05:54:07;;;;;;;15.98;13.98;;;23.90;65.30;;;;;;4959295;28;20097;-80
2021/06/27 05:56:33;;;;;;;14.98;13.40;;;23.80;65.00;;;;;;4975296;28;20033;-80
2021/06/27 05:58:59;;;;;;;14.18;12.65;;;24.10;65.40;;;;;;4942327;28;20039;-80
2021/06/27 06:01:24;;;;;;;13.65;12.25;;;24.50;64.10;;;;;;4958250;28;20117;-81
2021/06/27 06:03:50;;;;;;;15.07;12.25;;;24.70;63.90;;;;;;4958466;28;20125;-80
2021/06/27 06:06:16;;;;;;;14.50;13.00;;;24.80;63.00;;;;;;4942433;28;20450;-80
2021/06/27 06:08:42;;;;;;;13.63;12.23;;;25.50;61.80;;;;;;4977493;28;20022;-79
2021/06/27 06:11:13;;;;;;;14.77;13.27;;;25.90;60.60;;;;;;4943935;28;20034;-79
2021/06/27 06:13:39;;;;;;;12.88;11.57;;;26.20;58.60;;;;;;4943669;28;20034;-79
2021/06/27 06:16:06;;;;;;;13.68;12.38;;;26.70;58.10;;;;;;4944538;28;20479;-79
2021/06/27 06:18:32;;;;;;;12.70;11.40;;;26.70;56.90;;;;;;4943869;28;20031;-81
2021/06/27 06:20:58;;;;;;;12.85;11.38;;;26.50;56.90;;;;;;4960261;28;20027;-81
2021/06/27 06:23:25;;;;;;;13.48;12.07;;;26.20;57.10;;;;;;4959530;28;20035;-83
2021/06/27 06:25:50;;;;;;;11.90;10.65;;;26.10;57.70;;;;;;4977192;28;20068;-82
2021/06/27 06:28:16;;;;;;;11.93;10.73;;;26.50;58.10;;;;;;4959653;28;20545;-81
2021/06/27 06:30:42;;;;;;;12.32;11.10;;;27.10;56.20;;;;;;4960157;28;20023;-81
2021/06/27 06:33:11;;;;;;;10.90;9.75;;;27.90;54.70;;;;;;4976738;28;20043;-80
2021/06/27 06:35:41;;;;;;;10.40;9.50;;;28.20;51.90;;;;;;4960512;28;20034;-80
2021/06/27 06:38:08;;;;;;;10.15;9.25;;;29.00;51.60;;;;;;4959499;28;20050;-80
2021/06/27 06:40:34;;;;;;;8.75;8.00;;;29.60;48.70;;;;;;4959765;28;20031;-80
2021/06/27 06:43:00;;;;;;;10.30;9.30;;;30.10;48.10;;;;;;4959450;28;20031;-82
2021/06/27 06:45:26;;;;;;;9.45;8.45;;;29.90;47.00;;;;;;4943569;28;20073;-86
2021/06/27 06:47:52;;;;;;;9.07;8.27;;;29.90;47.60;;;;;;4944284;28;20027;-82
2021/06/27 06:50:18;;;;;;;9.88;8.90;;;30.20;47.30;;;;;;4960150;28;20462;-80
2021/06/27 06:52:44;;;;;;;10.00;9.00;;;29.80;46.70;;;;;;4959216;28;20034;-79
2021/06/27 06:55:10;;;;;;;9.40;8.55;;;29.20;47.80;;;;;;4943324;28;20479;-80
2021/06/27 06:57:37;;;;;;;9.77;8.27;;;29.00;48.90;;;;;;4959660;28;20478;-81
2021/06/27 07:00:05;;;;;;;8.30;7.60;;;29.50;48.30;;;;;;4961552;28;20038;-82
2021/06/27 07:02:30;;;;;;;9.65;8.73;;;29.50;47.60;;;;;;4961387;28;20030;-85
2021/06/27 07:04:56;;;;;;;9.15;8.20;;;29.30;47.40;;;;;;4962799;28;20530;-81
2021/06/27 07:07:22;;;;;;;9.52;8.68;;;29.30;48.10;;;;;;4946462;28;20027;-82
2021/06/27 07:09:47;;;;;;;12.20;9.88;;;29.30;47.70;;;;;;4961476;28;20467;-81
2021/06/27 07:12:13;;;;;;;10.73;9.68;;;28.80;48.00;;;;;;4947885;28;20039;-79
2021/06/27 07:14:39;;;;;;;9.15;8.25;;;27.90;49.50;;;;;;4947074;28;20035;-78
2021/06/27 07:17:05;;;;;;;8.93;8.13;;;27.60;50.90;;;;;;4979657;28;20031;-81
2021/06/27 07:19:30;;;;;;;8.85;7.93;;;27.80;51.40;;;;;;4944510;28;20427;-85
2021/06/27 07:21:56;;;;;;;9.25;8.35;;;28.50;49.50;;;;;;4944419;28;20196;-79
2021/06/27 07:24:22;;;;;;;8.60;7.80;;;29.00;48.40;;;;;;4977109;28;20035;-80
2021/06/27 07:26:48;;;;;;;7.60;6.85;;;28.90;48.00;;;;;;4961573;28;20031;-77
2021/06/27 07:29:14;;;;;;;8.27;7.50;;;28.80;48.70;;;;;;4962306;28;20035;-80
2021/06/27 07:31:49;;;;;;;7.63;6.85;;;28.30;49.20;;;;;;4962705;28;20038;-82
2021/06/27 07:34:15;;;;;;;9.57;7.93;;;28.60;49.50;;;;;;4950718;28;20053;-84
2021/06/27 07:36:41;;;;;;;7.60;7.00;;;28.60;48.30;;;;;;4966043;28;20488;-80
2021/06/27 07:39:07;;;;;;;8.50;7.70;;;28.20;49.30;;;;;;4946729;28;20031;-80
2021/06/27 07:41:33;;;;;;;9.13;8.20;;;27.80;49.50;;;;;;4960628;28;20041;-80
2021/06/27 07:43:59;;;;;;;7.75;7.03;;;27.70;50.70;;;;;;4959905;28;20030;-80
2021/06/27 07:46:25;;;;;;;8.15;7.40;;;27.90;49.90;;;;;;4976398;28;20059;-81
2021/06/27 07:48:51;;;;;;;7.95;7.25;;;27.70;49.80;;;;;;4960648;28;20073;-80
2021/06/27 07:51:17;;;;;;;9.05;7.45;;;27.90;50.00;;;;;;4944061;28;20019;-82
2021/06/27 07:53:42;;;;;;;8.52;7.70;;;28.00;49.90;;;;;;4943584;28;20031;-81
2021/06/27 07:56:08;;;;;;;7.70;7.03;;;28.60;48.60;;;;;;4977274;28;20444;-81
2021/06/27 07:58:34;;;;;;;7.07;6.47;;;29.10;48.00;;;;;;4943471;28;20038;-81
2021/06/27 08:01:01;;;;;;;7.95;7.13;;;29.40;47.80;;;;;;4945511;28;20027;-83
2021/06/27 08:03:26;;;;;;;7.75;7.15;;;29.60;47.10;;;;;;4962368;28;20026;-83
2021/06/27 08:05:52;;;;;;;8.10;7.38;;;29.20;47.20;;;;;;4978883;28;20019;-84
2021/06/27 08:08:18;;;;;;;7.78;7.00;;;28.70;48.20;;;;;;4961582;28;20031;-81
2021/06/27 08:10:44;;;;;;;8.38;7.57;;;28.30;48.60;;;;;;4962124;28;20050;-83
2021/06/27 08:13:11;;;;;;;7.75;7.05;;;28.20;49.10;;;;;;4945266;28;20031;-81
2021/06/27 08:15:37;;;;;;;8.50;7.80;;;28.20;49.70;;;;;;4977886;28;20102;-82
2021/06/27 08:18:03;;;;;;;7.72;7.13;;;28.40;49.30;;;;;;4945461;28;20055;-83
2021/06/27 08:20:30;;;;;;;8.63;7.72;;;28.40;48.80;;;;;;4964009;28;20034;-80
2021/06/27 08:22:56;;;;;;;7.97;7.32;;;28.40;48.90;;;;;;4964585;28;20121;-82
2021/06/27 08:25:22;;;;;;;8.18;7.28;;;28.20;49.10;;;;;;4963743;28;20034;-79
2021/06/27 08:27:49;;;;;;;7.60;6.80;;;27.70;50.30;;;;;;4946691;28;20034;-87
2021/06/27 08:30:16;;;;;;;7.38;6.68;;;27.50;51.10;;;;;;4947353;28;20033;-79
2021/06/27 08:32:45;;;;;;;7.03;6.20;;;27.60;50.40;;;;;;4963428;28;20033;-81
2021/06/27 08:35:12;;;;;;;8.57;7.88;;;27.60;50.70;;;;;;4947748;28;20023;-81
2021/06/27 08:37:38;;;;;;;7.28;6.38;;;27.60;50.60;;;;;;4948090;28;20035;-82
2021/06/27 08:40:05;;;;;;;7.68;7.05;;;27.40;51.60;;;;;;4963199;28;20109;-81
2021/06/27 08:42:31;;;;;;;6.75;6.20;;;27.60;51.70;;;;;;4947794;28;20035;-83
2021/06/27 08:44:57;;;;;;;7.53;6.95;;;27.90;51.60;;;;;;4981089;28;20097;-82
2021/06/27 08:47:23;;;;;;;7.18;6.47;;;28.10;50.30;;;;;;4945237;29;20062;-82
2021/06/27 08:49:50;;;;;;;6.90;6.38;;;28.10;49.90;;;;;;4975686;28;20035;-84
2021/06/27 08:52:18;;;;;;;6.78;6.18;;;28.40;50.60;;;;;;4960246;29;20102;-84
2021/06/27 08:54:46;;;;;;;6.65;6.15;;;28.90;50.40;;;;;;4945165;29;20122;-83
2021/06/27 08:57:13;;;;;;;6.10;5.60;;;29.50;49.20;;;;;;4945974;29;20083;-85
2021/06/27 08:59:40;;;;;;;6.50;5.90;;;29.60;47.60;;;;;;4944343;29;20463;-85
2021/06/27 09:02:06;;;;;;;6.82;6.22;;;29.70;47.80;;;;;;4961187;29;20091;-84
2021/06/27 09:04:34;;;;;;;6.88;6.38;;;29.70;48.50;;;;;;4960385;29;20032;-84
2021/06/27 09:07:25;;;;;;;6.18;5.78;;;29.90;47.80;;;;;;4944153;29;20038;-82
2021/06/27 09:09:51;;;;;;;9.03;8.23;;;30.20;48.10;;;;;;4975748;28;20118;-85
2021/06/27 09:12:17;;;;;;;5.43;5.03;;;30.50;46.40;;;;;;4960255;29;20317;-83
2021/06/27 09:14:45;;;;;;;6.53;6.13;;;30.00;48.80;;;;;;4944537;29;20107;-85
2021/06/27 09:17:40;;;;;;;5.95;5.45;;;30.20;48.10;;;;;;4944162;29;20031;-84
2021/06/27 09:20:08;;;;;;;5.55;5.13;;;30.40;48.50;;;;;;4959897;29;20057;-86
2021/06/27 09:22:40;;;;;;;6.47;5.85;;;31.20;47.70;;;;;;4944802;29;20023;-84
2021/06/27 09:25:22;;;;;;;6.13;5.55;;;31.60;45.60;;;;;;4963060;28;20456;-86
2021/06/27 09:28:15;;;;;;;5.85;5.38;;;31.10;46.00;;;;;;4960858;29;20123;-86
2021/06/27 09:30:59;;;;;;;7.57;6.88;;;30.90;46.80;;;;;;4959455;28;20126;-83
2021/06/27 09:33:30;;;;;;;6.50;5.90;;;31.30;46.30;;;;;;4960706;29;20027;-83
2021/06/27 09:36:00;;;;;;;6.25;5.75;;;31.20;46.10;;;;;;4962278;28;20023;-87
2021/06/27 09:38:31;;;;;;;5.72;5.32;;;30.90;46.40;;;;;;4961340;28;20035;-86
2021/06/27 09:41:07;;;;;;;6.43;6.00;;;31.20;46.90;;;;;;4960792;29;20110;-85
2021/06/27 09:43:35;;;;;;;5.47;5.13;;;31.80;46.20;;;;;;4962249;28;20242;-83
2021/06/27 09:46:14;;;;;;;7.00;6.30;;;31.60;46.10;;;;;;4960284;28;20039;-84
2021/06/27 09:48:50;;;;;;;5.20;4.82;;;31.30;44.80;;;;;;4980273;28;20027;-84
2021/06/27 09:51:19;;;;;;;6.38;5.85;;;31.00;46.60;;;;;;4964932;28;20447;-82
2021/06/27 09:53:46;;;;;;;6.35;5.22;;;30.90;46.20;;;;;;4980547;28;20113;-85
2021/06/27 09:56:17;;;;;;;5.78;5.43;;;30.70;46.30;;;;;;4963241;28;20033;-84
2021/06/27 09:58:59;;;;;;;5.10;4.70;;;30.90;46.10;;;;;;4963499;28;20027;-86
2021/06/27 10:01:26;;;;;;;6.00;5.50;;;30.30;45.70;;;;;;4963202;28;20118;-83
2021/06/27 10:03:54;;;;;;;4.65;4.07;;;30.00;46.70;;;;;;4947839;28;20027;-87
2021/06/27 10:06:22;;;;;;;5.70;5.20;;;29.90;48.20;;;;;;4962453;28;20077;-85
2021/06/27 10:08:48;;;;;;;5.47;4.97;;;30.10;46.50;;;;;;4948863;28;20035;-86
2021/06/27 10:11:17;;;;;;;5.15;4.65;;;30.10;46.60;;;;;;4947334;28;20073;-82
2021/06/27 10:13:49;;;;;;;5.65;5.25;;;30.10;46.40;;;;;;4980236;28;20470;-85
2021/06/27 10:16:34;;;;;;;5.60;5.10;;;30.20;46.40;;;;;;4962425;28;20113;-85
2021/06/27 10:19:00;;;;;;;6.32;5.82;;;30.10;46.40;;;;;;4963212;28;20130;-86
2021/06/27 10:21:29;;;;;;;5.80;5.30;;;29.80;46.90;;;;;;4979448;28;20146;-84
2021/06/27 10:23:55;;;;;;;4.63;4.25;;;29.70;47.50;;;;;;4962045;28;20027;-82
2021/06/27 10:26:23;;;;;;;5.80;4.93;;;29.90;47.00;;;;;;4946769;28;20041;-83
2021/06/27 10:28:51;;;;;;;4.75;4.45;;;30.10;45.50;;;;;;4980548;28;20026;-80
2021/06/27 10:31:24;;;;;;;4.75;4.35;;;29.80;44.60;;;;;;4963477;28;20033;-86
2021/06/27 10:33:50;;;;;;;4.53;4.22;;;29.60;46.30;;;;;;4948492;28;20061;-81
2021/06/27 10:36:50;;;;;;;6.38;4.65;;;29.50;45.70;;;;;;4983272;28;20090;-81
2021/06/27 10:39:19;;;;;;;6.13;4.15;;;29.40;45.10;;;;;;4957536;28;20046;-82
2021/06/27 10:42:06;;;;;;;4.65;3.60;;;29.60;44.20;;;;;;4947333;28;20053;-82
2021/06/27 10:44:37;;;;;;;4.32;4.03;;;29.70;44.80;;;;;;4947559;28;20061;-85
2021/06/27 10:47:05;;;;;;;5.32;4.68;;;29.90;45.70;;;;;;4979401;28;20043;-85
2021/06/27 10:49:31;;;;;;;5.60;3.88;;;30.30;45.30;;;;;;4963303;28;20023;-85
2021/06/27 10:52:11;;;;;;;3.58;3.38;;;30.40;44.20;;;;;;4981257;28;20379;-87
2021/06/27 10:54:42;;;;;;;3.47;3.28;;;30.40;44.30;;;;;;4956370;28;20026;-82
2021/06/27 10:57:07;;;;;;;4.00;3.70;;;30.20;43.30;;;;;;4945902;28;20031;-86
2021/06/27 10:59:39;;;;;;;4.13;3.83;;;30.00;43.40;;;;;;4979582;28;20121;-83
2021/06/27 11:02:14;;;;;;;3.67;3.42;;;30.20;44.20;;;;;;4980320;28;20059;-87
2021/06/27 11:04:40;;;;;;;4.38;3.97;;;30.30;42.70;;;;;;4981409;28;20033;-83
2021/06/27 11:07:06;;;;;;;4.18;3.72;;;30.00;43.80;;;;;;4946883;28;20031;-87
2021/06/27 11:09:31;;;;;;;4.00;3.70;;;29.90;44.10;;;;;;4974851;28;20062;-90
2021/06/27 11:11:58;;;;;;;4.80;4.05;;;29.60;44.00;;;;;;4975190;28;20443;-82
2021/06/27 11:14:25;;;;;;;4.55;4.15;;;29.70;44.60;;;;;;4957343;28;20038;-82
2021/06/27 11:17:07;;;;;;;4.78;4.45;;;29.60;44.40;;;;;;4975364;28;20080;-85
2021/06/27 11:19:37;;;;;;;4.43;4.03;;;29.50;44.20;;;;;;4957415;28;20039;-84
2021/06/27 11:22:23;;;;;;;4.65;4.25;;;29.20;45.00;;;;;;4956838;28;20324;-80
2021/06/27 11:24:55;;;;;;;4.28;3.88;;;29.10;45.50;;;;;;4941409;28;20352;-89
2021/06/27 11:27:35;;;;;;;5.18;4.78;;;29.20;46.00;;;;;;4956868;28;20476;-82
2021/06/27 11:30:20;;;;;;;4.22;3.92;;;29.40;45.60;;;;;;4957246;28;20102;-87
2021/06/27 11:32:48;;;;;;;4.30;3.92;;;29.50;45.20;;;;;;4973843;28;20459;-82
2021/06/27 11:35:36;;;;;;;4.70;4.40;;;29.50;45.70;;;;;;4957611;28;20055;-88
2021/06/27 11:38:03;;;;;;;4.75;4.35;;;29.60;45.20;;;;;;4958105;28;20042;-86
2021/06/27 11:40:48;;;;;;;5.00;4.60;;;29.80;44.30;;;;;;4989943;28;20027;-87
2021/06/27 11:43:14;;;;;;;4.30;4.00;;;29.80;44.80;;;;;;4979776;28;20023;-91
2021/06/27 11:45:42;;;;;;;5.00;4.60;;;29.80;43.50;;;;;;4963955;28;20038;-84
2021/06/27 11:48:09;;;;;;;4.03;3.70;;;29.60;44.10;;;;;;4980137;28;20046;-87
2021/06/27 11:50:37;;;;;;;4.55;4.25;;;29.50;44.30;;;;;;4980765;28;20011;-81
2021/06/27 11:53:11;;;;;;;4.30;4.00;;;29.70;43.80;;;;;;4981711;28;20015;-86
2021/06/27 11:56:08;;;;;;;5.45;4.50;;;29.60;44.30;;;;;;4981023;28;20027;-85
2021/06/27 11:58:34;;;;;;;4.20;3.90;;;29.90;44.10;;;;;;4963318;28;20081;-84
2021/06/27 12:01:06;;;;;;;5.82;5.28;;;29.90;44.00;;;;;;4974816;28;20010;-82
2021/06/27 12:03:32;;;;;;;4.47;4.10;;;30.00;44.30;;;;;;4994214;28;20067;-82
2021/06/27 12:06:01;;;;;;;4.40;4.10;;;30.00;44.10;;;;;;4957765;28;20038;-84
2021/06/27 12:08:28;;;;;;;5.03;4.70;;;29.80;44.40;;;;;;4967313;28;20449;-86
2021/06/27 12:10:57;;;;;;;4.63;4.32;;;29.60;44.30;;;;;;4961529;28;20023;-86
2021/06/27 12:13:24;;;;;;;4.85;4.45;;;29.60;44.90;;;;;;4961799;28;20030;-85
2021/06/27 12:15:54;;;;;;;5.75;4.25;;;29.70;44.50;;;;;;4982529;28;20026;-86
2021/06/27 12:18:27;;;;;;;4.20;3.90;;;29.60;44.20;;;;;;4967260;28;20060;-83
2021/06/27 12:20:55;;;;;;;4.88;4.38;;;29.70;45.30;;;;;;4947864;28;20039;-86
2021/06/27 12:23:26;;;;;;;4.85;4.38;;;29.80;44.90;;;;;;4977501;28;20426;-86
2021/06/27 12:25:57;;;;;;;4.15;3.75;;;29.70;44.20;;;;;;4961236;28;20138;-86
2021/06/27 12:28:46;;;;;;;3.90;3.70;;;29.60;46.00;;;;;;4961276;28;20033;-87
2021/06/27 12:31:17;;;;;;;4.03;3.75;;;29.80;45.00;;;;;;4978240;28;20015;-85
2021/06/27 12:33:52;;;;;;;3.87;3.57;;;30.10;44.50;;;;;;4977412;28;20027;-85
2021/06/27 12:36:31;;;;;;;4.30;3.90;;;30.10;44.50;;;;;;4960719;28;20054;-85
2021/06/27 12:39:07;;;;;;;4.07;3.65;;;30.30;44.50;;;;;;4976126;28;20394;-80
2021/06/27 12:41:38;;;;;;;3.95;3.65;;;30.10;44.30;;;;;;4960188;28;20022;-86